Terminal Aerodrome Forecast
Issued by NWS

Home | Current Version | Previous Version | Text Only | Print | Product List | Glossary On
Versions: 1 2 3 4 5 6 7 8 9 10 11 12 13 14 15 16 17 18 19 20 21 22 23 24 25 26 27 28 29 30 31
000
FTUS41 KCTP 191150
TAFBFD
TAF
KBFD 191150Z 1912/2012 16009G16KT P6SM BKN080 WS018/20045KT
     FM191300 16009G17KT P6SM BKN025 OVC080 WS020/22045KT
     FM191500 18009G16KT 4SM -RA BR OVC015 WS020/24050KT
     FM191700 19008G15KT 2SM -RA BR OVC003 WS020/22050KT
     FM192200 19008G15KT 4SM -RA BR OVC003 WS020/22040KT
     FM200400 20009KT 6SM -RA BR OVC008=

USA.gov is the U.S. government's official web portal to all federal, state and local government web resources and services.